Flight Track Log - Related Links

Times and Time Zones

All times are in EDT time to prevent confusion due to time zone crossing. See the UCA3597 flight status page for this flight to view local times or setup timezone preferences in your user account.

Time Position Orientation Groundspeed Altitude Reporting Facility
EDT Latitude Longitude Course Direction KTS MPH feet Rate Location/Type
Sat 05:40:00 PM 39.3113 -77.3021 19° North  Level Estimated
Sat 05:41:00 PM 39.3720 -77.2757 19° North  Level Estimated
Sat 05:42:00 PM 39.4326 -77.2492 19° North  Level Estimated
Sat 05:43:00 PM 39.4932 -77.2226 19° North  Level Estimated
Sat 05:44:00 PM 39.5538 -77.1960 19° North  Level Estimated
Sat 05:45:00 PM 39.6144 -77.1693 19° North  Level Estimated
Sat 05:46:00 PM 39.6750 -77.1426 19° North  Level Estimated
Sat 05:47:00 PM 39.7356 -77.1159 19° North  Level Estimated
Sat 05:48:00 PM 39.7962 -77.0891 19° North  Level Estimated
Sat 05:49:00 PM 39.8568 -77.0623 19° North  Level Estimated
Sat 05:50:00 PM 39.9173 -77.0354 19° North  Level Estimated
Sat 05:51:00 PM 39.9779 -77.0085 19° North  Level Estimated
Sat 05:52:00 PM 40.0385 -76.9815 19° North  Level Estimated
Sat 05:53:00 PM 40.0990 -76.9545 19° North  Level Estimated
Sat 05:54:00 PM 40.1596 -76.9274 19° North  Level Estimated
Sat 05:55:00 PM 40.2201 -76.9003 19° North  Level Estimated
Sat 05:56:00 PM 40.2806 -76.8731 19° North  Level Estimated
Sat 05:57:00 PM 40.3412 -76.8459 19° North  Level Estimated
Sat 05:58:00 PM 40.4017 -76.8186 19° North  Level Estimated
Sat 05:59:00 PM 40.4622 -76.7913 19° North  Level Estimated
Sat 06:00:00 PM 40.5227 -76.7639 19° North  Level Estimated
Sat 06:01:00 PM 40.5832 -76.7365 19° North  Level Estimated
Sat 06:02:00 PM 40.6437 -76.7090 19° North  Level Estimated
Sat 06:03:00 PM 40.7042 -76.6815 19° North  Level Estimated
Sat 06:04:00 PM 40.7647 -76.6539 19° North  Level Estimated
Sat 06:05:00 PM 40.8252 -76.6263 19° North  Level Estimated
Sat 06:06:00 PM 40.8856 -76.5986 19° North  Level Estimated
Sat 06:07:00 PM 40.9461 -76.5709 19° North  Level Estimated
Sat 06:08:00 PM 41.0065 -76.5432 19° North  Level Estimated
Sat 06:09:00 PM 41.0670 -76.5153 19° North  Level Estimated
Sat 06:10:00 PM 41.1274 -76.4875 19° North  Level Estimated
Sat 06:11:00 PM 41.1879 -76.4595 19° North  Level Estimated
Sat 06:12:00 PM 41.2483 -76.4316 19° North  Level Estimated
Sat 06:13:00 PM 41.3087 -76.4036 19° North  Level Estimated
Sat 06:14:00 PM 41.3691 -76.3755 19° North  Level Estimated
Sat 06:15:00 PM 41.4296 -76.3474 19° North  Level Estimated
Sat 06:16:00 PM 41.4900 -76.3192 19° North  Level Estimated
Sat 06:17:00 PM 41.5504 -76.2909 19° North  Level Estimated
Sat 06:18:00 PM 41.6107 -76.2626 19° North  Level Estimated
Sat 06:19:00 PM 41.6711 -76.2343 19° North  Level Estimated
Sat 06:20:00 PM 41.7315 -76.2059 19° North  Level Estimated
Sat 06:21:00 PM 41.7919 -76.1775 19° North  Level Estimated
Sat 06:22:00 PM 41.8522 -76.1490 19° North  Level Estimated
Sat 06:23:00 PM 41.9126 -76.1204 19° North  Level Estimated
Sat 06:24:00 PM 41.9729 -76.0918 19° North  Level Estimated
Sat 06:25:00 PM 42.0333 -76.0631 19° North  Level Estimated
Sat 06:26:00 PM 42.0936 -76.0344 19° North  Level Estimated
Sat 06:27:00 PM 42.1539 -76.0057 19° North  Level Estimated
Sat 06:28:00 PM 42.2084 -75.9796 19° North  Level Estimated
Sat 06:29:00 PM 42.2084 -75.9796 35° Northeast  Level Estimated
Sat 06:30:00 PM 42.2084 -75.9796 35° Northeast  Level Estimated
Sat 06:31:00 PM 42.2084 -75.9796 35° Northeast  Level Estimated
Sat 06:32:00 PM 42.2084 -75.9796 35° Northeast  Level Estimated
Sat 06:33:00 PM 42.2084 -75.9796 35° Northeast  Level Estimated
Sat 06:34:00 PM 42.2084 -75.9796 35° Northeast  Level Estimated
Sat 06:35:00 PM 42.2084 -75.9796 35° Northeast  Level Estimated
Sat 06:36:00 PM 42.2084 -75.9796 35° Northeast  Level Estimated
Sat 06:37:00 PM 42.2084 -75.9796 35° Northeast  Level Estimated
Sat 06:38:00 PM 42.2084 -75.9796 35° Northeast  Level Estimated
Sat 06:39:00 PM 42.2084 -75.9796 35° Northeast  Level Estimated
Sat 06:40:00 PM 42.2084 -75.9796 35° Northeast  Level Estimated
Sat 06:41:00 PM 42.2084 -75.9796 35° Northeast  Level Estimated
Sat 06:42:00 PM 42.2084 -75.9796 35° Northeast  Level Estimated
Sat 06:43:00 PM 42.2084 -75.9796 35° Northeast  Level Estimated
Sat 06:44:00 PM 42.2084 -75.9796 35° Northeast  Level Estimated

Login

Don't have an account? Register now (free) for customized features, flight alerts, and more!